Time;durP1;ratioP1;P1;durP2;ratioP2;P2;SDS_P1;SDS_P2;PMS_P1;PMS_P2;Temp;Humidity;BMP_temperature;BMP_pressure;BME280_temperature;BME280_humidity;BME280_pressure;Samples;Min_cycle;Max_cycle;Signal;HPM_P1;HPM_P2
2023/06/03 00:01:04;;;;;;;1.50;1.50;;;;;;;17.63;65.93;95330.84;4368141;32;20193;-63
2023/06/03 00:03:36;;;;;;;2.50;1.83;;;;;;;17.67;65.26;95331.75;4377363;32;20188;-64
2023/06/03 00:06:03;;;;;;;3.33;1.97;;;;;;;17.59;65.44;95335.31;4375910;32;20188;-64
2023/06/03 00:08:31;;;;;;;1.50;1.50;;;;;;;17.50;65.25;95334.66;4368904;32;20254;-64
2023/06/03 00:10:58;;;;;;;2.70;2.23;;;;;;;17.45;66.07;95326.84;4354656;32;20227;-64
2023/06/03 00:13:23;;;;;;;3.70;2.00;;;;;;;17.40;65.91;95335.91;4368747;32;20207;-64
2023/06/03 00:15:51;;;;;;;1.53;1.43;;;;;;;17.46;66.09;95329.16;4378004;32;20189;-64
2023/06/03 00:18:19;;;;;;;1.70;1.60;;;;;;;17.46;66.19;95328.37;4375425;32;20226;-64
2023/06/03 00:20:47;;;;;;;2.63;2.43;;;;;;;17.48;66.00;95337.66;4365559;32;20196;-64
2023/06/03 00:23:18;;;;;;;2.60;2.00;;;;;;;17.44;65.90;95341.38;4358958;32;20256;-64
2023/06/03 00:25:44;;;;;;;2.53;2.30;;;;;;;17.45;66.03;95338.38;4360840;32;20219;-64
2023/06/03 00:28:11;;;;;;;2.53;2.40;;;;;;;17.55;65.63;95341.69;4363328;32;20264;-64
2023/06/03 00:30:38;;;;;;;1.90;1.80;;;;;;;17.43;65.58;95347.84;4375605;32;20260;-64
2023/06/03 00:33:05;;;;;;;2.30;2.20;;;;;;;17.50;65.95;95348.06;4367489;32;20226;-64
2023/06/03 00:35:33;;;;;;;2.43;1.67;;;;;;;17.51;65.71;95344.25;4369660;32;20185;-64
2023/06/03 00:38:00;;;;;;;3.53;2.30;;;;;;;17.31;66.03;95339.78;4366496;32;20201;-63
2023/06/03 00:40:28;;;;;;;3.90;1.80;;;;;;;17.19;65.99;95348.62;4344306;32;20249;-64
2023/06/03 00:42:55;;;;;;;1.70;1.70;;;;;;;17.13;66.64;95350.75;4343390;32;20282;-64
2023/06/03 00:45:20;;;;;;;3.33;2.40;;;;;;;17.17;67.36;95346.28;4383718;32;20203;-64
2023/06/03 00:47:47;;;;;;;4.40;2.10;;;;;;;17.27;67.04;95345.03;4376742;32;20189;-64
2023/06/03 00:50:14;;;;;;;2.50;2.27;;;;;;;17.29;66.93;95339.34;4370108;32;20315;-64
2023/06/03 00:52:42;;;;;;;1.20;1.20;;;;;;;17.26;65.99;95348.84;4356364;32;20316;-64
2023/06/03 00:55:09;;;;;;;1.70;1.70;;;;;;;17.33;66.94;95337.56;4347723;32;20189;-64
2023/06/03 00:57:44;;;;;;;1.93;1.83;;;;;;;17.31;65.65;95350.53;4336753;32;20192;-64
2023/06/03 01:00:10;;;;;;;1.57;1.50;;;;;;;17.07;66.31;95341.34;4378757;32;20271;-63
2023/06/03 01:02:38;;;;;;;1.70;1.40;;;;;;;16.99;66.47;95330.75;4331665;32;20189;-64
2023/06/03 01:05:07;;;;;;;1.83;1.73;;;;;;;16.87;66.77;95336.84;4356069;32;20236;-64
2023/06/03 01:08:09;;;;;;;1.70;1.70;;;;;;;16.77;68.17;95338.06;4352940;32;20250;-64
2023/06/03 01:11:05;;;;;;;7.47;1.80;;;;;;;16.82;68.39;95343.22;4351161;32;20236;-64
2023/06/03 01:14:08;;;;;;;1.47;1.37;;;;;;;16.95;68.44;95337.88;4330741;32;20238;-64
2023/06/03 01:16:44;;;;;;;4.03;2.37;;;;;;;17.00;67.56;95341.12;4367559;32;20282;-64
2023/06/03 01:19:26;;;;;;;1.10;1.10;;;;;;;16.87;67.93;95352.13;4372678;32;22707;-64
2023/06/03 01:22:00;;;;;;;2.43;2.33;;;;;;;16.86;67.74;95335.28;4354979;32;20250;-64
2023/06/03 01:24:26;;;;;;;1.60;1.50;;;;;;;16.87;67.65;95339.53;4341812;32;20208;-64
2023/06/03 01:27:00;;;;;;;2.77;2.57;;;;;;;16.80;66.90;95333.94;4366050;32;20257;-64
2023/06/03 01:29:27;;;;;;;3.40;2.43;;;;;;;16.67;68.05;95338.47;4359973;32;20225;-64
2023/06/03 01:31:57;;;;;;;2.77;2.17;;;;;;;16.75;69.15;95336.84;4364352;32;20193;-64
2023/06/03 01:34:25;;;;;;;2.03;1.87;;;;;;;16.46;68.79;95338.50;4343546;32;20177;-64
2023/06/03 01:36:51;;;;;;;4.47;1.67;;;;;;;16.39;68.41;95340.16;4360068;32;20199;-64
2023/06/03 01:39:19;;;;;;;2.97;2.77;;;;;;;16.28;70.21;95336.31;4350183;32;20189;-64
2023/06/03 01:41:46;;;;;;;3.90;1.80;;;;;;;16.25;70.10;95332.41;4367463;32;20213;-64
2023/06/03 01:44:13;;;;;;;1.37;1.30;;;;;;;16.31;70.12;95336.44;4349662;32;20203;-64
2023/06/03 01:46:39;;;;;;;1.60;1.60;;;;;;;16.25;69.89;95337.75;4337017;32;20193;-63
2023/06/03 01:49:08;;;;;;;2.87;1.90;;;;;;;16.36;68.70;95338.94;4335895;32;20244;-64
2023/06/03 01:51:35;;;;;;;3.20;2.30;;;;;;;16.18;69.52;95329.50;4374957;32;20188;-63
2023/06/03 01:54:02;;;;;;;1.60;1.60;;;;;;;16.20;69.83;95332.62;4363869;32;20188;-64
2023/06/03 01:56:30;;;;;;;2.00;1.90;;;;;;;16.17;69.41;95332.50;4371455;32;20185;-64
2023/06/03 01:58:57;;;;;;;2.10;2.00;;;;;;;16.14;71.45;95336.59;4373285;32;20197;-63
2023/06/03 02:01:24;;;;;;;1.93;1.83;;;;;;;16.06;69.95;95334.75;4369020;32;20189;-64
2023/06/03 02:03:51;;;;;;;1.67;1.67;;;;;;;16.02;69.84;95333.84;4371184;32;20188;-64
2023/06/03 02:06:18;;;;;;;4.33;3.00;;;;;;;15.99;70.64;95334.53;4375587;32;20180;-64
2023/06/03 02:08:44;;;;;;;2.23;2.13;;;;;;;15.90;70.78;95328.44;4331863;32;20197;-64
2023/06/03 02:11:13;;;;;;;7.80;2.77;;;;;;;15.92;71.06;95339.59;4364532;32;20352;-64
2023/06/03 02:13:38;;;;;;;2.60;2.40;;;;;;;16.13;70.99;95337.72;4362030;32;20202;-63
2023/06/03 02:16:08;;;;;;;1.73;1.73;;;;;;;16.08;69.35;95332.53;4351470;32;20254;-64
2023/06/03 02:18:39;;;;;;;1.33;1.33;;;;;;;15.86;70.06;95335.56;4329705;32;20271;-64
2023/06/03 02:21:07;;;;;;;1.83;1.73;;;;;;;15.68;70.67;95335.69;4357250;32;20184;-64
2023/06/03 02:23:35;;;;;;;1.83;1.73;;;;;;;15.89;70.96;95335.69;4370264;32;20260;-64
2023/06/03 02:26:13;;;;;;;1.27;1.17;;;;;;;15.84;70.23;95337.78;4356773;32;20238;-63
2023/06/03 02:28:41;;;;;;;2.17;1.97;;;;;;;15.78;70.55;95331.84;4337954;32;20252;-63
2023/06/03 02:31:08;;;;;;;3.67;2.00;;;;;;;16.07;71.31;95341.69;4360086;32;20237;-63
2023/06/03 02:33:33;;;;;;;3.47;1.67;;;;;;;16.02;70.66;95336.53;4363649;32;20214;-64
2023/06/03 02:35:59;;;;;;;2.57;2.47;;;;;;;16.02;70.09;95328.50;4358466;32;20201;-64
2023/06/03 02:38:25;;;;;;;2.43;2.23;;;;;;;15.95;69.32;95330.94;4384404;32;20224;-63
2023/06/03 02:40:50;;;;;;;1.77;1.67;;;;;;;15.79;70.04;95336.84;4362710;32;20197;-64
2023/06/03 02:43:15;;;;;;;2.90;2.27;;;;;;;15.65;69.91;95332.88;4357919;32;20185;-63
2023/06/03 02:45:42;;;;;;;2.17;2.07;;;;;;;15.35;71.38;95326.75;4355702;32;20196;-64
2023/06/03 02:48:09;;;;;;;2.17;2.07;;;;;;;15.52;71.06;95331.97;4377632;32;20263;-64
2023/06/03 02:50:35;;;;;;;3.67;2.13;;;;;;;15.67;71.23;95338.69;4364534;32;20230;-63
2023/06/03 02:53:01;;;;;;;2.73;2.47;;;;;;;15.67;69.16;95333.31;4359429;32;20192;-64
2023/06/03 02:55:28;;;;;;;2.23;2.13;;;;;;;15.65;69.15;95330.97;4373313;32;20276;-64
2023/06/03 02:57:56;;;;;;;2.00;1.90;;;;;;;15.71;68.46;95331.56;4383701;32;20222;-64
2023/06/03 03:00:23;;;;;;;2.27;2.17;;;;;;;15.77;68.08;95336.41;4356910;32;20219;-64
2023/06/03 03:02:52;;;;;;;2.27;1.87;;;;;;;15.87;69.79;95331.78;4355808;32;20188;-64
2023/06/03 03:05:23;;;;;;;1.53;1.33;;;;;;;16.11;69.62;95337.25;4333278;32;20198;-63
2023/06/03 03:07:51;;;;;;;2.10;1.90;;;;;;;15.99;67.30;95339.88;4377200;32;20189;-64
2023/06/03 03:10:18;;;;;;;1.33;1.33;;;;;;;15.83;68.76;95331.63;4364807;32;20180;-63
2023/06/03 03:12:43;;;;;;;2.07;1.97;;;;;;;15.74;66.86;95334.38;4323517;32;20263;-63
2023/06/03 03:15:09;;;;;;;2.60;1.53;;;;;;;15.67;69.02;95344.03;4365715;32;20196;-64
2023/06/03 03:17:35;;;;;;;2.27;1.60;;;;;;;15.80;67.68;95343.75;4381562;32;20269;-63
2023/06/03 03:20:03;;;;;;;2.33;2.13;;;;;;;15.74;69.17;95339.75;4352314;32;20212;-63
2023/06/03 03:22:30;;;;;;;1.83;1.73;;;;;;;15.77;69.29;95344.44;4357069;32;20278;-63
2023/06/03 03:24:57;;;;;;;3.27;1.47;;;;;;;15.46;67.39;95339.41;4351979;32;20185;-64
2023/06/03 03:27:22;;;;;;;1.57;1.50;;;;;;;15.61;70.16;95347.97;4379407;32;20212;-64
2023/06/03 03:29:51;;;;;;;1.83;1.63;;;;;;;15.55;70.20;95344.72;4367208;32;20287;-63
2023/06/03 03:32:19;;;;;;;2.77;2.20;;;;;;;15.64;68.90;95348.12;4345730;32;20240;-63
2023/06/03 03:35:13;;;;;;;1.60;1.50;;;;;;;15.76;70.05;95348.22;4357289;32;20195;-63
2023/06/03 03:37:39;;;;;;;1.20;1.20;;;;;;;15.66;67.77;95358.50;4364427;32;20196;-63
2023/06/03 03:40:20;;;;;;;8.13;2.17;;;;;;;15.77;67.34;95354.34;4338412;32;20229;-63
2023/06/03 03:42:54;;;;;;;1.63;1.53;;;;;;;15.70;69.26;95360.22;4363192;32;20203;-63
2023/06/03 03:45:26;;;;;;;1.53;1.43;;;;;;;15.86;69.84;95364.97;4330116;32;20263;-64
2023/06/03 03:48:01;;;;;;;1.30;1.30;;;;;;;15.76;69.78;95364.28;4309173;32;20244;-64
2023/06/03 03:50:52;;;;;;;0.83;0.83;;;;;;;15.72;67.58;95367.91;4353746;32;20205;-64
2023/06/03 03:53:36;;;;;;;1.20;1.20;;;;;;;15.80;69.15;95367.06;4333423;32;20200;-64
2023/06/03 03:56:05;;;;;;;1.70;1.60;;;;;;;15.88;68.15;95368.91;4368958;32;20200;-64
2023/06/03 03:58:42;;;;;;;3.87;2.30;;;;;;;15.97;67.60;95369.63;4360170;32;20240;-63
2023/06/03 04:01:17;;;;;;;1.80;1.70;;;;;;;15.98;67.84;95370.41;4348810;32;20220;-64
2023/06/03 04:03:48;;;;;;;1.90;1.80;;;;;;;16.06;68.02;95372.22;4382906;32;20203;-63
2023/06/03 04:06:32;;;;;;;0.90;0.90;;;;;;;16.04;69.10;95369.09;4363488;32;20350;-63
2023/06/03 04:09:00;;;;;;;5.57;1.83;;;;;;;16.12;67.77;95381.66;4375260;32;20249;-64
2023/06/03 04:11:35;;;;;;;1.87;1.87;;;;;;;15.79;68.50;95379.66;4343499;32;20200;-64
2023/06/03 04:14:05;;;;;;;1.03;1.03;;;;;;;15.71;67.79;95382.41;4352216;32;20203;-63
2023/06/03 04:17:00;;;;;;;5.10;2.00;;;;;;;15.60;68.62;95381.19;4361518;32;20279;-64
2023/06/03 04:19:36;;;;;;;3.73;1.87;;;;;;;15.49;68.06;95380.75;4378068;32;20245;-64
2023/06/03 04:22:18;;;;;;;1.70;1.60;;;;;;;15.28;68.57;95379.91;4377637;32;20188;-64
2023/06/03 04:24:44;;;;;;;1.13;1.00;;;;;;;15.40;70.74;95382.66;4372591;32;20189;-63
2023/06/03 04:27:12;;;;;;;2.60;1.77;;;;;;;15.53;68.87;95381.69;4370349;32;20200;-63
2023/06/03 04:29:39;;;;;;;1.63;1.53;;;;;;;15.37;68.88;95383.34;4376671;32;20191;-63
2023/06/03 04:32:06;;;;;;;1.10;1.10;;;;;;;15.19;68.17;95390.63;4377030;32;20203;-63
2023/06/03 04:34:31;;;;;;;1.17;1.17;;;;;;;15.12;69.39;95388.47;4377081;32;20188;-63
2023/06/03 04:36:56;;;;;;;2.57;2.07;;;;;;;15.17;69.61;95381.38;4368677;32;20201;-63
2023/06/03 04:39:25;;;;;;;2.47;2.33;;;;;;;15.13;68.25;95384.69;4376656;32;20189;-64
2023/06/03 04:41:50;;;;;;;1.27;1.27;;;;;;;15.26;70.71;95382.13;4380806;32;20221;-64
2023/06/03 04:44:20;;;;;;;1.93;1.83;;;;;;;15.30;70.08;95388.41;4362705;32;20216;-63
2023/06/03 04:46:49;;;;;;;0.97;0.97;;;;;;;15.40;70.09;95390.69;4363114;32;20265;-63
2023/06/03 04:49:18;;;;;;;1.60;1.50;;;;;;;15.62;70.19;95387.78;4362494;32;20204;-64
2023/06/03 04:51:45;;;;;;;1.80;1.73;;;;;;;15.58;70.53;95392.22;4371643;32;20196;-63
2023/06/03 04:54:12;;;;;;;9.97;1.70;;;;;;;15.68;69.14;95389.16;4369438;32;20235;-63
2023/06/03 04:56:37;;;;;;;1.00;1.00;;;;;;;15.69;68.00;95395.31;4339389;32;20299;-63
2023/06/03 04:59:04;;;;;;;1.80;1.77;;;;;;;15.82;69.09;95389.72;4369368;32;20196;-64
2023/06/03 05:01:31;;;;;;;1.73;1.63;;;;;;;15.97;68.37;95387.59;4373941;32;20188;-63
2023/06/03 05:04:02;;;;;;;7.23;2.10;;;;;;;15.93;67.65;95384.00;4372808;32;20296;-64
2023/06/03 05:06:32;;;;;;;2.40;2.20;;;;;;;16.09;68.02;95393.78;4365200;32;20212;-63
2023/06/03 05:08:58;;;;;;;1.63;1.53;;;;;;;16.16;68.64;95390.59;4356732;32;20196;-64
2023/06/03 05:11:25;;;;;;;1.73;1.63;;;;;;;16.14;67.53;95390.13;4348826;32;20193;-64
2023/06/03 05:14:15;;;;;;;2.47;1.47;;;;;;;16.01;65.87;95383.91;4378900;32;20198;-64
2023/06/03 05:16:43;;;;;;;1.73;1.63;;;;;;;15.80;66.22;95380.44;4347873;32;20193;-64
2023/06/03 05:19:09;;;;;;;2.40;2.00;;;;;;;16.00;68.10;95377.00;4369649;32;20197;-63
2023/06/03 05:21:36;;;;;;;1.00;1.00;;;;;;;16.06;67.82;95386.41;4355483;32;20263;-63
2023/06/03 05:24:02;;;;;;;1.57;1.57;;;;;;;16.14;68.26;95379.44;4369638;32;20188;-64
2023/06/03 05:26:32;;;;;;;1.00;0.90;;;;;;;16.22;68.38;95377.78;4370058;32;20192;-64
2023/06/03 05:28:59;;;;;;;2.60;2.40;;;;;;;16.18;67.05;95380.34;4364638;32;20219;-64
2023/06/03 05:31:24;;;;;;;0.97;0.97;;;;;;;16.31;67.93;95379.28;4377313;32;20243;-64
2023/06/03 05:33:53;;;;;;;1.07;1.07;;;;;;;16.26;67.12;95381.38;4373984;32;20200;-63
2023/06/03 05:36:20;;;;;;;1.60;1.50;;;;;;;16.34;67.79;95381.31;4314530;32;20208;-64
2023/06/03 05:38:47;;;;;;;1.80;1.70;;;;;;;16.39;67.21;95378.44;4344126;32;20302;-64
2023/06/03 05:41:15;;;;;;;1.93;1.83;;;;;;;16.43;66.50;95376.66;4380896;32;20293;-64
2023/06/03 05:43:42;;;;;;;2.27;1.87;;;;;;;16.42;65.80;95388.47;4360945;32;20197;-63
2023/06/03 05:46:08;;;;;;;1.80;1.40;;;;;;;16.25;66.62;95385.16;4359253;32;20189;-63
2023/06/03 05:48:36;;;;;;;1.37;1.30;;;;;;;16.21;66.60;95381.59;4372216;32;20231;-64
2023/06/03 05:51:03;;;;;;;1.40;1.40;;;;;;;16.28;67.83;95374.59;4359850;32;20206;-64
2023/06/03 05:53:32;;;;;;;2.00;1.90;;;;;;;16.29;66.62;95386.84;4357817;32;20225;-64
2023/06/03 05:55:59;;;;;;;6.60;2.03;;;;;;;16.42;66.12;95369.72;4368050;32;20196;-63
2023/06/03 05:58:27;;;;;;;1.43;1.30;;;;;;;16.35;66.07;95380.19;4362865;32;20207;-64
2023/06/03 06:00:55;;;;;;;3.80;2.10;;;;;;;16.25;67.77;95375.22;4324239;32;20204;-64
2023/06/03 06:03:20;;;;;;;1.10;1.10;;;;;;;16.31;67.36;95371.25;4355279;32;20192;-64
2023/06/03 06:05:46;;;;;;;2.13;1.37;;;;;;;16.50;66.65;95374.22;4358488;32;20188;-63
2023/06/03 06:08:13;;;;;;;1.37;1.37;;;;;;;16.76;67.28;95378.59;4376752;32;20276;-64
2023/06/03 06:10:38;;;;;;;1.30;0.87;;;;;;;16.85;64.74;95371.22;4367602;32;20203;-63
2023/06/03 06:13:05;;;;;;;1.50;1.50;;;;;;;16.76;64.85;95374.03;4371090;32;20196;-64
2023/06/03 06:15:31;;;;;;;2.00;1.90;;;;;;;17.07;66.77;95378.09;4342678;32;20245;-63
2023/06/03 06:17:59;;;;;;;1.30;1.30;;;;;;;17.09;65.89;95381.22;4366650;32;20279;-64
2023/06/03 06:20:29;;;;;;;1.70;1.60;;;;;;;17.13;65.09;95390.16;4345288;32;20200;-64
2023/06/03 06:22:58;;;;;;;1.90;1.77;;;;;;;17.08;64.95;95388.47;4364639;32;20212;-64
2023/06/03 06:25:24;;;;;;;1.53;1.47;;;;;;;17.03;65.27;95383.34;4351975;32;20209;-64
2023/06/03 06:27:51;;;;;;;2.40;2.20;;;;;;;17.16;64.67;95382.25;4383385;32;20223;-63
2023/06/03 06:30:17;;;;;;;1.50;1.50;;;;;;;17.16;65.14;95370.75;4357426;32;20256;-64
2023/06/03 06:32:52;;;;;;;0.97;0.97;;;;;;;17.12;65.39;95375.19;4349185;32;20340;-64
2023/06/03 06:35:19;;;;;;;2.63;2.43;;;;;;;17.29;64.59;95374.22;4333773;32;20230;-63
2023/06/03 06:37:46;;;;;;;3.27;1.70;;;;;;;17.26;64.37;95377.56;4339184;32;20185;-64
2023/06/03 06:40:21;;;;;;;1.77;1.67;;;;;;;17.29;64.65;95380.34;4364042;32;20211;-63
2023/06/03 06:42:49;;;;;;;1.60;1.50;;;;;;;17.26;64.05;95380.22;4368726;32;20196;-64
2023/06/03 06:45:35;;;;;;;1.40;1.40;;;;;;;17.25;63.85;95379.44;4380611;32;20216;-64
2023/06/03 06:48:07;;;;;;;1.10;1.10;;;;;;;17.47;63.30;95386.28;4341537;32;20212;-64
2023/06/03 06:50:53;;;;;;;1.30;1.30;;;;;;;17.51;63.14;95379.12;4332919;32;20204;-64
2023/06/03 06:53:21;;;;;;;1.20;1.20;;;;;;;17.77;64.05;95382.28;4357910;32;20236;-64
2023/06/03 06:55:54;;;;;;;3.43;1.97;;;;;;;17.76;63.45;95380.72;4369853;32;20226;-64
2023/06/03 06:58:22;;;;;;;1.90;1.80;;;;;;;18.00;63.48;95384.50;4353857;32;20240;-63
2023/06/03 07:00:49;;;;;;;6.70;1.97;;;;;;;18.15;61.83;95389.94;4351066;32;20197;-64
2023/06/03 07:03:18;;;;;;;2.03;1.93;;;;;;;18.19;63.13;95384.66;4368808;32;20200;-63
2023/06/03 07:05:52;;;;;;;1.20;1.20;;;;;;;18.14;62.39;95382.22;4371879;32;20232;-64
2023/06/03 07:08:20;;;;;;;1.20;1.20;;;;;;;18.43;61.88;95386.50;4332262;32;20207;-64
2023/06/03 07:10:45;;;;;;;1.50;1.40;;;;;;;18.65;61.75;95383.31;4354064;32;20227;-64
2023/06/03 07:13:16;;;;;;;1.53;1.50;;;;;;;18.73;60.10;95384.28;4355954;32;20212;-64
2023/06/03 07:15:47;;;;;;;2.23;1.37;;;;;;;19.06;60.05;95389.37;4369596;32;20201;-64
2023/06/03 07:18:14;;;;;;;4.73;2.07;;;;;;;18.85;59.05;95387.69;4358169;32;20298;-64
2023/06/03 07:20:42;;;;;;;1.50;1.40;;;;;;;18.65;60.57;95391.38;4353502;32;20215;-64
2023/06/03 07:23:13;;;;;;;1.20;1.20;;;;;;;18.49;60.79;95388.63;4348214;32;20283;-64
2023/06/03 07:25:50;;;;;;;1.83;1.73;;;;;;;18.41;60.71;95391.44;4350250;32;20219;-64
2023/06/03 07:28:24;;;;;;;1.83;1.73;;;;;;;18.33;60.77;95403.09;4374635;32;20291;-64
2023/06/03 07:30:52;;;;;;;1.30;1.23;;;;;;;18.35;62.33;95398.16;4366613;32;20237;-64
2023/06/03 07:33:40;;;;;;;3.03;1.10;;;;;;;18.39;60.72;95401.75;4367829;32;20223;-64
2023/06/03 07:36:08;;;;;;;1.77;1.67;;;;;;;18.49;61.59;95404.75;4320217;32;20193;-64
2023/06/03 07:39:02;;;;;;;1.30;1.30;;;;;;;18.38;62.09;95402.84;4355413;32;20240;-64
2023/06/03 07:41:40;;;;;;;1.77;1.67;;;;;;;18.34;61.21;95407.34;4333512;32;20220;-63
2023/06/03 07:44:13;;;;;;;5.20;1.53;;;;;;;18.28;62.29;95406.81;4342178;32;20232;-64
2023/06/03 07:46:53;;;;;;;2.10;2.00;;;;;;;18.57;61.22;95402.22;4337406;32;20194;-64
2023/06/03 07:49:21;;;;;;;2.63;1.53;;;;;;;18.39;61.69;95404.44;4292484;32;20192;-64
2023/06/03 07:51:55;;;;;;;2.40;2.23;;;;;;;18.39;61.21;95405.22;4341462;32;20190;-64
2023/06/03 07:54:25;;;;;;;2.07;1.97;;;;;;;18.46;60.97;95413.47;4333240;32;20189;-63
2023/06/03 07:56:51;;;;;;;1.67;1.57;;;;;;;18.27;61.91;95405.25;4312436;32;20253;-63
2023/06/03 07:59:21;;;;;;;1.27;1.27;;;;;;;18.40;61.50;95412.16;4344741;32;20193;-64
2023/06/03 08:01:50;;;;;;;1.67;1.57;;;;;;;18.43;62.05;95413.37;4322733;32;20272;-64
2023/06/03 08:04:29;;;;;;;4.73;2.57;;;;;;;18.29;61.68;95411.03;4279173;32;20193;-64
2023/06/03 08:06:56;;;;;;;1.77;1.67;;;;;;;18.44;60.73;95417.63;4316319;32;20200;-64
2023/06/03 08:09:38;;;;;;;2.00;1.90;;;;;;;18.42;61.13;95414.50;4341593;32;20189;-64
2023/06/03 08:12:10;;;;;;;1.83;1.73;;;;;;;18.47;60.85;95417.72;4354887;32;20192;-64
2023/06/03 08:14:43;;;;;;;4.90;2.20;;;;;;;18.55;60.82;95416.00;4364473;32;20184;-64
2023/06/03 08:17:14;;;;;;;2.40;2.30;;;;;;;18.49;60.83;95415.50;4364274;32;20193;-64
2023/06/03 08:19:44;;;;;;;1.73;1.67;;;;;;;18.46;61.01;95410.78;4360213;32;20200;-64
2023/06/03 08:22:35;;;;;;;1.60;1.50;;;;;;;18.33;61.42;95414.63;4359175;32;20227;-64
2023/06/03 08:25:01;;;;;;;1.87;1.43;;;;;;;18.43;61.41;95416.84;4279353;32;20194;-64
2023/06/03 08:27:27;;;;;;;1.53;1.53;;;;;;;18.35;61.36;95415.06;4347682;32;20254;-64
2023/06/03 08:29:57;;;;;;;2.87;2.10;;;;;;;18.30;61.65;95417.19;4360337;32;20282;-64
2023/06/03 08:32:23;;;;;;;1.87;1.77;;;;;;;18.38;61.47;95417.06;4341400;32;20201;-64
2023/06/03 08:34:50;;;;;;;1.93;1.83;;;;;;;18.43;61.55;95410.69;4348726;32;20207;-64
2023/06/03 08:37:16;;;;;;;3.20;1.57;;;;;;;18.50;61.47;95417.03;4342316;32;20200;-64
2023/06/03 08:39:42;;;;;;;2.13;2.03;;;;;;;18.57;61.22;95410.28;4371303;32;20180;-64
2023/06/03 08:42:17;;;;;;;1.37;1.33;;;;;;;18.61;61.07;95416.59;4349949;32;20261;-64
2023/06/03 08:45:06;;;;;;;3.07;1.60;;;;;;;18.72;60.42;95412.28;4381585;32;20278;-64
2023/06/03 08:48:16;;;;;;;1.50;1.40;;;;;;;18.85;60.29;95413.81;4346380;32;20220;-64
2023/06/03 08:50:48;;;;;;;2.13;2.03;;;;;;;18.85;60.52;95411.13;4362299;32;20204;-64
2023/06/03 08:53:14;;;;;;;1.70;1.60;;;;;;;18.83;60.15;95410.66;4364862;32;20278;-64
2023/06/03 08:55:40;;;;;;;1.63;1.53;;;;;;;18.97;59.55;95413.72;4335297;32;20213;-64
2023/06/03 08:58:23;;;;;;;1.97;1.77;;;;;;;19.01;59.29;95417.28;4373488;32;20310;-64
2023/06/03 09:00:59;;;;;;;0.83;0.83;;;;;;;19.02;59.42;95418.88;4359859;32;20220;-64
2023/06/03 09:03:28;;;;;;;1.33;1.23;;;;;;;19.13;58.98;95421.81;4338674;32;20214;-64
2023/06/03 09:06:07;;;;;;;2.00;1.73;;;;;;;19.02;58.88;95416.16;4373170;32;20192;-65
2023/06/03 09:08:35;;;;;;;1.70;1.60;;;;;;;19.22;58.83;95419.75;4375702;32;20214;-64
2023/06/03 09:11:03;;;;;;;1.43;1.43;;;;;;;19.13;58.83;95421.81;4368261;32;20235;-64
2023/06/03 09:13:32;;;;;;;1.63;1.53;;;;;;;19.31;59.05;95422.28;4371397;32;20200;-64
2023/06/03 09:15:59;;;;;;;1.47;1.47;;;;;;;19.33;58.50;95420.03;4352843;32;20306;-64
2023/06/03 09:18:49;;;;;;;2.07;1.93;;;;;;;19.30;58.78;95408.06;4351132;32;20295;-64
2023/06/03 09:21:18;;;;;;;1.20;1.20;;;;;;;19.42;58.15;95417.94;4363164;32;20201;-64
2023/06/03 09:23:44;;;;;;;2.13;2.03;;;;;;;19.28;58.49;95415.69;4379882;32;20298;-64
2023/06/03 09:26:10;;;;;;;1.63;1.47;;;;;;;19.42;57.62;95417.94;4367981;32;20222;-64
2023/06/03 09:28:36;;;;;;;1.53;1.53;;;;;;;19.32;58.66;95407.72;4361942;32;20229;-64
2023/06/03 09:31:05;;;;;;;1.70;1.47;;;;;;;19.58;57.48;95410.69;4348052;32;20185;-64
2023/06/03 09:33:32;;;;;;;1.37;1.37;;;;;;;19.46;58.11;95410.75;4359005;32;20240;-64
2023/06/03 09:36:15;;;;;;;1.80;1.23;;;;;;;19.57;57.59;95417.19;4350598;32;20212;-64
2023/06/03 09:38:57;;;;;;;1.60;1.50;;;;;;;19.66;57.89;95417.81;4358527;32;20189;-64
2023/06/03 09:41:27;;;;;;;1.40;1.30;;;;;;;19.74;57.35;95418.75;4352239;32;20251;-64
2023/06/03 09:44:02;;;;;;;2.33;1.73;;;;;;;19.85;56.79;95419.78;4355473;32;20197;-64
2023/06/03 09:46:38;;;;;;;1.90;1.80;;;;;;;19.82;56.89;95415.88;4344762;32;20262;-64
2023/06/03 09:49:16;;;;;;;2.27;2.07;;;;;;;19.96;59.94;95420.00;4339037;32;20227;-65
2023/06/03 09:51:45;;;;;;;2.03;1.90;;;;;;;19.77;60.02;95426.91;4347260;32;20256;-65
2023/06/03 09:54:16;;;;;;;1.70;1.60;;;;;;;19.57;58.93;95414.50;4354593;32;20193;-65
2023/06/03 09:56:45;;;;;;;1.07;1.07;;;;;;;19.64;58.29;95413.91;4378964;32;20206;-65
2023/06/03 09:59:25;;;;;;;1.77;1.67;;;;;;;19.92;57.42;95413.78;4373237;32;20201;-65
2023/06/03 10:01:53;;;;;;;1.87;1.60;;;;;;;20.19;56.41;95424.38;4327730;32;20295;-65
2023/06/03 10:04:41;;;;;;;0.90;0.90;;;;;;;20.24;55.68;95409.88;4372889;32;20185;-65
2023/06/03 10:07:16;;;;;;;1.27;1.27;;;;;;;20.15;55.89;95415.47;4352914;32;20232;-65
2023/06/03 10:09:47;;;;;;;1.30;1.30;;;;;;;20.26;55.84;95418.38;4337521;32;20252;-65
2023/06/03 10:12:36;;;;;;;1.03;1.03;;;;;;;20.25;55.38;95416.81;4359196;32;20199;-65
2023/06/03 10:15:04;;;;;;;1.10;1.10;;;;;;;20.37;55.16;95411.31;4368410;32;20219;-65
2023/06/03 10:17:31;;;;;;;0.70;0.70;;;;;;;20.37;55.34;95408.62;4373672;32;20308;-65
2023/06/03 10:19:59;;;;;;;1.43;1.43;;;;;;;20.40;55.25;95409.84;4356721;32;20201;-65
2023/06/03 10:22:26;;;;;;;1.00;1.00;;;;;;;20.52;54.95;95409.72;4367965;32;20226;-65
2023/06/03 10:24:55;;;;;;;0.70;0.70;;;;;;;20.49;54.45;95413.91;4351962;32;20207;-65
2023/06/03 10:27:22;;;;;;;1.07;1.07;;;;;;;20.42;55.11;95404.87;4354208;32;20269;-65
2023/06/03 10:29:53;;;;;;;1.43;1.43;;;;;;;20.46;54.75;95411.13;4386376;32;20211;-63
2023/06/03 10:32:43;;;;;;;0.80;0.80;;;;;;;20.49;54.43;95403.13;4369597;32;20192;-63
2023/06/03 10:35:10;;;;;;;1.67;1.57;;;;;;;20.65;53.92;95402.25;4377454;32;20204;-63
2023/06/03 10:37:40;;;;;;;1.43;1.40;;;;;;;20.69;53.47;95408.50;4373811;32;20211;-63
2023/06/03 10:40:13;;;;;;;2.23;1.07;;;;;;;20.59;53.84;95399.84;4375485;32;20204;-63
2023/06/03 10:42:44;;;;;;;1.17;1.17;;;;;;;20.68;53.28;95401.56;4370014;32;20192;-63
2023/06/03 10:45:14;;;;;;;1.90;1.80;;;;;;;20.69;53.52;95389.63;4364108;32;20228;-63
2023/06/03 10:48:04;;;;;;;1.03;1.03;;;;;;;20.88;53.91;95403.88;4363805;32;20188;-63
2023/06/03 10:50:54;;;;;;;1.83;1.73;;;;;;;20.93;52.72;95398.19;4383139;32;20197;-65
2023/06/03 10:53:33;;;;;;;0.70;0.70;;;;;;;21.06;52.28;95396.13;4387614;32;20189;-65
2023/06/03 10:56:41;;;;;;;2.30;1.70;;;;;;;21.03;51.77;95398.75;4374125;32;20203;-65
2023/06/03 10:59:16;;;;;;;0.90;0.90;;;;;;;21.04;51.99;95403.00;4370035;32;20256;-65
2023/06/03 11:02:02;;;;;;;1.83;1.73;;;;;;;21.04;51.87;95398.37;4366624;32;20203;-65
2023/06/03 11:04:37;;;;;;;2.50;2.30;;;;;;;21.18;51.98;95401.34;4344138;32;20244;-65
2023/06/03 11:07:05;;;;;;;1.80;1.70;;;;;;;21.09;52.80;95408.88;4355863;32;20251;-65
2023/06/03 11:09:35;;;;;;;0.90;0.90;;;;;;;21.13;52.07;95398.16;4374803;32;20264;-65
2023/06/03 11:12:13;;;;;;;1.43;1.20;;;;;;;21.15;51.75;95399.38;4357638;32;20244;-65
2023/06/03 11:14:52;;;;;;;1.77;1.50;;;;;;;21.13;51.13;95400.88;4377760;32;20188;-65
2023/06/03 11:17:19;;;;;;;1.33;1.00;;;;;;;21.06;52.22;95400.72;4360673;32;20272;-65
2023/06/03 11:19:50;;;;;;;0.77;0.77;;;;;;;21.07;51.55;95402.28;4335587;32;20300;-65
2023/06/03 11:22:30;;;;;;;2.63;0.93;;;;;;;21.12;51.10;95392.00;4369050;32;20214;-65
2023/06/03 11:24:58;;;;;;;2.03;1.90;;;;;;;21.30;51.43;95392.31;4375060;32;20297;-65
2023/06/03 11:27:25;;;;;;;1.33;1.23;;;;;;;21.21;51.44;95391.75;4377283;32;20196;-65
2023/06/03 11:30:02;;;;;;;2.70;1.40;;;;;;;21.19;51.93;95397.53;4350199;32;20211;-65
2023/06/03 11:32:34;;;;;;;1.13;1.13;;;;;;;21.18;51.49;95395.97;4338085;32;20257;-64
2023/06/03 11:35:09;;;;;;;1.63;1.60;;;;;;;21.10;51.63;95391.56;4376164;32;20263;-65
2023/06/03 11:37:43;;;;;;;3.13;1.00;;;;;;;21.24;51.45;95386.44;4361882;32;20214;-63
2023/06/03 11:40:24;;;;;;;1.60;1.57;;;;;;;21.22;51.85;95377.91;4339086;32;20189;-65
2023/06/03 11:42:56;;;;;;;1.50;1.40;;;;;;;21.30;51.35;95378.03;4326013;32;20255;-65
2023/06/03 11:45:32;;;;;;;1.80;1.73;;;;;;;21.35;50.43;95375.84;4383691;32;20206;-65
2023/06/03 11:48:13;;;;;;;1.40;1.30;;;;;;;21.35;51.08;95375.06;4354285;32;20199;-65
2023/06/03 11:50:58;;;;;;;1.17;1.10;;;;;;;21.38;51.55;95375.13;4388831;32;20203;-65
2023/06/03 11:53:42;;;;;;;1.57;1.40;;;;;;;21.44;50.69;95375.56;4344823;32;20216;-65